Terminal Aerodrome Forecast
Issued by NWS

Home | Current Version | Previous Version | Text Only | Print | Product List | Glossary On
Versions: 1 2 3 4 5 6 7 8 9 10 11 12 13 14 15 16 17 18 19 20 21 22 23
000
FTAK31 PAFA 010538
TAFAMC
TAF
PAMC 010538Z 0106/0206 VRB03KT P6SM SCT080
     FM010800 18005KT P6SM SCT035 BKN080
     FM011500 19013KT 6SM RA BKN020 OVC035 WS020/23040KT=

USA.gov is the U.S. government's official web portal to all federal, state and local government web resources and services.